sensor_id;sensor_type;location;lat;lon;timestamp;temperature;humidity
10388;DHT22;5240;51.128;4.566;2023-09-30T00:01:45;13.10;99.90
10388;DHT22;5240;51.128;4.566;2023-09-30T00:04:12;13.20;99.90
10388;DHT22;5240;51.128;4.566;2023-09-30T00:06:40;13.20;99.90
10388;DHT22;5240;51.128;4.566;2023-09-30T00:09:07;13.20;99.90
10388;DHT22;5240;51.128;4.566;2023-09-30T00:11:34;13.20;99.90
10388;DHT22;5240;51.128;4.566;2023-09-30T00:14:02;13.20;99.90
10388;DHT22;5240;51.128;4.566;2023-09-30T00:16:30;13.20;99.90
10388;DHT22;5240;51.128;4.566;2023-09-30T00:18:57;13.20;99.90
10388;DHT22;5240;51.128;4.566;2023-09-30T00:21:24;13.20;99.90
10388;DHT22;5240;51.128;4.566;2023-09-30T00:23:53;13.20;99.90
10388;DHT22;5240;51.128;4.566;2023-09-30T00:26:20;13.10;99.90
10388;DHT22;5240;51.128;4.566;2023-09-30T00:28:47;13.10;99.90
10388;DHT22;5240;51.128;4.566;2023-09-30T00:31:14;13.10;99.90
10388;DHT22;5240;51.128;4.566;2023-09-30T00:33:41;13.10;99.90
10388;DHT22;5240;51.128;4.566;2023-09-30T00:36:09;13.00;99.90
10388;DHT22;5240;51.128;4.566;2023-09-30T00:38:37;13.00;99.90
10388;DHT22;5240;51.128;4.566;2023-09-30T00:41:06;13.00;99.90
10388;DHT22;5240;51.128;4.566;2023-09-30T00:43:33;13.00;99.90
10388;DHT22;5240;51.128;4.566;2023-09-30T00:46:06;13.00;99.90
10388;DHT22;5240;51.128;4.566;2023-09-30T00:48:35;13.00;99.90
10388;DHT22;5240;51.128;4.566;2023-09-30T00:51:02;13.00;99.90
10388;DHT22;5240;51.128;4.566;2023-09-30T00:53:30;13.00;99.90
10388;DHT22;5240;51.128;4.566;2023-09-30T00:55:59;13.00;99.90
10388;DHT22;5240;51.128;4.566;2023-09-30T00:58:27;13.00;99.90
10388;DHT22;5240;51.128;4.566;2023-09-30T01:00:56;13.00;99.90
10388;DHT22;5240;51.128;4.566;2023-09-30T01:03:25;13.00;99.90
10388;DHT22;5240;51.128;4.566;2023-09-30T01:05:53;12.90;99.90
10388;DHT22;5240;51.128;4.566;2023-09-30T01:08:20;12.90;99.90
10388;DHT22;5240;51.128;4.566;2023-09-30T01:10:47;12.90;99.90
10388;DHT22;5240;51.128;4.566;2023-09-30T01:13:15;12.90;99.90
10388;DHT22;5240;51.128;4.566;2023-09-30T01:15:43;12.90;99.90
10388;DHT22;5240;51.128;4.566;2023-09-30T01:18:10;12.90;99.90
10388;DHT22;5240;51.128;4.566;2023-09-30T01:20:37;12.90;99.90
10388;DHT22;5240;51.128;4.566;2023-09-30T01:23:06;12.80;99.90
10388;DHT22;5240;51.128;4.566;2023-09-30T01:25:34;12.70;99.90
10388;DHT22;5240;51.128;4.566;2023-09-30T01:28:07;12.70;99.90
10388;DHT22;5240;51.128;4.566;2023-09-30T01:30:36;12.70;99.90
10388;DHT22;5240;51.128;4.566;2023-09-30T01:33:03;12.70;99.90
10388;DHT22;5240;51.128;4.566;2023-09-30T01:35:33;12.70;99.90
10388;DHT22;5240;51.128;4.566;2023-09-30T01:38:00;12.70;99.90
10388;DHT22;5240;51.128;4.566;2023-09-30T01:40:28;12.70;99.90
10388;DHT22;5240;51.128;4.566;2023-09-30T01:42:56;12.60;99.90
10388;DHT22;5240;51.128;4.566;2023-09-30T01:45:23;12.60;99.90
10388;DHT22;5240;51.128;4.566;2023-09-30T01:47:50;12.60;99.90
10388;DHT22;5240;51.128;4.566;2023-09-30T01:50:17;12.60;99.90
10388;DHT22;5240;51.128;4.566;2023-09-30T01:52:44;12.60;99.90
10388;DHT22;5240;51.128;4.566;2023-09-30T01:55:11;12.60;99.90
10388;DHT22;5240;51.128;4.566;2023-09-30T01:57:40;12.60;99.90
10388;DHT22;5240;51.128;4.566;2023-09-30T02:00:07;12.60;99.90
10388;DHT22;5240;51.128;4.566;2023-09-30T02:02:36;12.50;99.90
10388;DHT22;5240;51.128;4.566;2023-09-30T02:05:03;12.50;99.90
10388;DHT22;5240;51.128;4.566;2023-09-30T02:07:33;12.40;99.90
10388;DHT22;5240;51.128;4.566;2023-09-30T02:10:00;12.40;99.90
10388;DHT22;5240;51.128;4.566;2023-09-30T02:12:28;12.30;99.90
10388;DHT22;5240;51.128;4.566;2023-09-30T02:14:57;12.30;99.90
10388;DHT22;5240;51.128;4.566;2023-09-30T02:17:24;12.30;99.90
10388;DHT22;5240;51.128;4.566;2023-09-30T02:19:51;12.30;99.90
10388;DHT22;5240;51.128;4.566;2023-09-30T02:22:20;12.40;99.90
10388;DHT22;5240;51.128;4.566;2023-09-30T02:24:49;12.40;99.90
10388;DHT22;5240;51.128;4.566;2023-09-30T02:27:16;12.40;99.90
10388;DHT22;5240;51.128;4.566;2023-09-30T02:29:43;12.40;99.90
10388;DHT22;5240;51.128;4.566;2023-09-30T02:32:11;12.40;99.90
10388;DHT22;5240;51.128;4.566;2023-09-30T02:34:39;12.40;99.90
10388;DHT22;5240;51.128;4.566;2023-09-30T02:37:07;12.40;99.90
10388;DHT22;5240;51.128;4.566;2023-09-30T02:39:36;12.40;99.90
10388;DHT22;5240;51.128;4.566;2023-09-30T02:42:04;12.40;99.90
10388;DHT22;5240;51.128;4.566;2023-09-30T02:44:31;12.50;99.90
10388;DHT22;5240;51.128;4.566;2023-09-30T02:46:58;12.50;99.90
10388;DHT22;5240;51.128;4.566;2023-09-30T02:49:26;12.60;99.90
10388;DHT22;5240;51.128;4.566;2023-09-30T02:51:53;12.60;99.90
10388;DHT22;5240;51.128;4.566;2023-09-30T02:54:20;12.60;99.90
10388;DHT22;5240;51.128;4.566;2023-09-30T02:56:47;12.60;99.90
10388;DHT22;5240;51.128;4.566;2023-09-30T02:59:14;12.60;99.90
10388;DHT22;5240;51.128;4.566;2023-09-30T03:01:42;12.60;99.90
10388;DHT22;5240;51.128;4.566;2023-09-30T03:04:09;12.50;99.90
10388;DHT22;5240;51.128;4.566;2023-09-30T03:06:39;12.50;99.90
10388;DHT22;5240;51.128;4.566;2023-09-30T03:09:08;12.40;99.90
10388;DHT22;5240;51.128;4.566;2023-09-30T03:11:37;12.40;99.90
10388;DHT22;5240;51.128;4.566;2023-09-30T03:14:04;12.40;99.90
10388;DHT22;5240;51.128;4.566;2023-09-30T03:16:33;12.40;99.90
10388;DHT22;5240;51.128;4.566;2023-09-30T03:19:00;12.40;99.90
10388;DHT22;5240;51.128;4.566;2023-09-30T03:21:32;12.40;99.90
10388;DHT22;5240;51.128;4.566;2023-09-30T03:24:02;12.40;99.90
10388;DHT22;5240;51.128;4.566;2023-09-30T03:26:29;12.40;99.90
10388;DHT22;5240;51.128;4.566;2023-09-30T03:28:57;12.40;99.90
10388;DHT22;5240;51.128;4.566;2023-09-30T03:31:24;12.40;99.90
10388;DHT22;5240;51.128;4.566;2023-09-30T03:33:52;12.40;99.90
10388;DHT22;5240;51.128;4.566;2023-09-30T03:36:19;12.30;99.90
10388;DHT22;5240;51.128;4.566;2023-09-30T03:38:48;12.40;99.90
10388;DHT22;5240;51.128;4.566;2023-09-30T03:41:16;12.40;99.90
10388;DHT22;5240;51.128;4.566;2023-09-30T03:43:45;12.30;99.90
10388;DHT22;5240;51.128;4.566;2023-09-30T03:46:13;12.30;99.90
10388;DHT22;5240;51.128;4.566;2023-09-30T03:48:40;12.20;99.90
10388;DHT22;5240;51.128;4.566;2023-09-30T03:51:09;12.20;99.90
10388;DHT22;5240;51.128;4.566;2023-09-30T03:53:39;12.20;99.90
10388;DHT22;5240;51.128;4.566;2023-09-30T03:56:06;12.10;99.90
10388;DHT22;5240;51.128;4.566;2023-09-30T03:58:34;12.10;99.90
10388;DHT22;5240;51.128;4.566;2023-09-30T04:01:03;12.10;99.90
10388;DHT22;5240;51.128;4.566;2023-09-30T04:03:31;12.10;99.90
10388;DHT22;5240;51.128;4.566;2023-09-30T04:05:59;12.10;99.90
10388;DHT22;5240;51.128;4.566;2023-09-30T04:08:26;12.10;99.90
10388;DHT22;5240;51.128;4.566;2023-09-30T04:10:54;12.10;99.90
10388;DHT22;5240;51.128;4.566;2023-09-30T04:13:21;12.10;99.90
10388;DHT22;5240;51.128;4.566;2023-09-30T04:15:49;12.10;99.90
10388;DHT22;5240;51.128;4.566;2023-09-30T04:18:16;12.10;99.90
10388;DHT22;5240;51.128;4.566;2023-09-30T04:20:45;12.10;99.90
10388;DHT22;5240;51.128;4.566;2023-09-30T04:23:12;12.10;99.90
10388;DHT22;5240;51.128;4.566;2023-09-30T04:25:40;12.00;99.90
10388;DHT22;5240;51.128;4.566;2023-09-30T04:28:09;12.00;99.90
10388;DHT22;5240;51.128;4.566;2023-09-30T04:30:36;12.00;99.90
10388;DHT22;5240;51.128;4.566;2023-09-30T04:33:05;11.90;99.90
10388;DHT22;5240;51.128;4.566;2023-09-30T04:35:33;11.90;99.90
10388;DHT22;5240;51.128;4.566;2023-09-30T04:38:01;12.00;99.90
10388;DHT22;5240;51.128;4.566;2023-09-30T04:40:29;11.90;99.90
10388;DHT22;5240;51.128;4.566;2023-09-30T04:42:58;11.90;99.90
10388;DHT22;5240;51.128;4.566;2023-09-30T04:45:25;11.90;99.90
10388;DHT22;5240;51.128;4.566;2023-09-30T04:47:53;11.90;99.90
10388;DHT22;5240;51.128;4.566;2023-09-30T04:50:23;11.80;99.90
10388;DHT22;5240;51.128;4.566;2023-09-30T04:52:50;11.80;99.90
10388;DHT22;5240;51.128;4.566;2023-09-30T04:55:18;11.80;99.90
10388;DHT22;5240;51.128;4.566;2023-09-30T04:57:45;11.80;99.90
10388;DHT22;5240;51.128;4.566;2023-09-30T05:00:14;11.80;99.90
10388;DHT22;5240;51.128;4.566;2023-09-30T05:02:43;11.80;99.90
10388;DHT22;5240;51.128;4.566;2023-09-30T05:05:11;11.80;99.90
10388;DHT22;5240;51.128;4.566;2023-09-30T05:07:40;11.70;99.90
10388;DHT22;5240;51.128;4.566;2023-09-30T05:10:07;11.70;99.90
10388;DHT22;5240;51.128;4.566;2023-09-30T05:12:37;11.70;99.90
10388;DHT22;5240;51.128;4.566;2023-09-30T05:15:05;11.70;99.90
10388;DHT22;5240;51.128;4.566;2023-09-30T05:17:33;11.70;99.90
10388;DHT22;5240;51.128;4.566;2023-09-30T05:19:59;11.70;99.90
10388;DHT22;5240;51.128;4.566;2023-09-30T05:22:26;11.70;99.90
10388;DHT22;5240;51.128;4.566;2023-09-30T05:24:57;11.80;99.90
10388;DHT22;5240;51.128;4.566;2023-09-30T05:27:24;11.80;99.90
10388;DHT22;5240;51.128;4.566;2023-09-30T05:29:50;11.80;99.90
10388;DHT22;5240;51.128;4.566;2023-09-30T05:32:17;11.80;99.90
10388;DHT22;5240;51.128;4.566;2023-09-30T05:34:44;11.80;99.90
10388;DHT22;5240;51.128;4.566;2023-09-30T05:37:12;11.80;99.90
10388;DHT22;5240;51.128;4.566;2023-09-30T05:39:39;11.80;99.90
10388;DHT22;5240;51.128;4.566;2023-09-30T05:42:09;11.80;99.90
10388;DHT22;5240;51.128;4.566;2023-09-30T05:44:37;11.80;99.90
10388;DHT22;5240;51.128;4.566;2023-09-30T05:47:04;11.80;99.90
10388;DHT22;5240;51.128;4.566;2023-09-30T05:49:31;11.80;99.90
10388;DHT22;5240;51.128;4.566;2023-09-30T05:51:58;11.80;99.90
10388;DHT22;5240;51.128;4.566;2023-09-30T05:54:25;11.80;99.90
10388;DHT22;5240;51.128;4.566;2023-09-30T05:56:52;11.80;99.90
10388;DHT22;5240;51.128;4.566;2023-09-30T05:59:20;11.80;99.90
10388;DHT22;5240;51.128;4.566;2023-09-30T06:01:47;11.80;99.90
10388;DHT22;5240;51.128;4.566;2023-09-30T06:04:14;11.80;99.90
10388;DHT22;5240;51.128;4.566;2023-09-30T06:06:41;11.80;99.90
10388;DHT22;5240;51.128;4.566;2023-09-30T06:09:09;11.90;99.90
10388;DHT22;5240;51.128;4.566;2023-09-30T06:11:37;11.90;99.90
10388;DHT22;5240;51.128;4.566;2023-09-30T06:14:04;12.00;99.90
10388;DHT22;5240;51.128;4.566;2023-09-30T06:16:33;12.00;99.90
10388;DHT22;5240;51.128;4.566;2023-09-30T06:19:00;12.00;99.90
10388;DHT22;5240;51.128;4.566;2023-09-30T06:21:28;12.10;99.90
10388;DHT22;5240;51.128;4.566;2023-09-30T06:23:55;12.10;99.90
10388;DHT22;5240;51.128;4.566;2023-09-30T06:26:23;12.10;99.90
10388;DHT22;5240;51.128;4.566;2023-09-30T06:28:53;12.10;99.90
10388;DHT22;5240;51.128;4.566;2023-09-30T06:31:21;12.20;99.90
10388;DHT22;5240;51.128;4.566;2023-09-30T06:33:50;12.20;99.90
10388;DHT22;5240;51.128;4.566;2023-09-30T06:36:17;12.20;99.90
10388;DHT22;5240;51.128;4.566;2023-09-30T06:38:44;12.20;99.90
10388;DHT22;5240;51.128;4.566;2023-09-30T06:41:17;12.30;99.90
10388;DHT22;5240;51.128;4.566;2023-09-30T06:43:45;12.30;99.90
10388;DHT22;5240;51.128;4.566;2023-09-30T06:46:13;12.40;99.90
10388;DHT22;5240;51.128;4.566;2023-09-30T06:48:40;12.40;99.90
10388;DHT22;5240;51.128;4.566;2023-09-30T06:51:13;12.40;99.90
10388;DHT22;5240;51.128;4.566;2023-09-30T06:53:42;12.50;99.90
10388;DHT22;5240;51.128;4.566;2023-09-30T06:56:09;12.60;99.90
10388;DHT22;5240;51.128;4.566;2023-09-30T06:58:36;12.70;99.90
10388;DHT22;5240;51.128;4.566;2023-09-30T07:01:03;12.80;99.90
10388;DHT22;5240;51.128;4.566;2023-09-30T07:03:30;13.00;99.90
10388;DHT22;5240;51.128;4.566;2023-09-30T07:05:58;13.10;99.90
10388;DHT22;5240;51.128;4.566;2023-09-30T07:08:27;13.20;99.90
10388;DHT22;5240;51.128;4.566;2023-09-30T07:10:55;13.30;99.90
10388;DHT22;5240;51.128;4.566;2023-09-30T07:13:23;13.40;99.90
10388;DHT22;5240;51.128;4.566;2023-09-30T07:15:50;13.40;99.90
10388;DHT22;5240;51.128;4.566;2023-09-30T07:18:17;13.50;99.90
10388;DHT22;5240;51.128;4.566;2023-09-30T07:20:44;13.60;99.90
10388;DHT22;5240;51.128;4.566;2023-09-30T07:23:11;13.60;99.90
10388;DHT22;5240;51.128;4.566;2023-09-30T07:25:41;13.70;99.90
10388;DHT22;5240;51.128;4.566;2023-09-30T07:28:08;13.70;99.90
10388;DHT22;5240;51.128;4.566;2023-09-30T07:30:38;13.80;99.90
10388;DHT22;5240;51.128;4.566;2023-09-30T07:33:05;13.90;99.90
10388;DHT22;5240;51.128;4.566;2023-09-30T07:35:35;14.00;99.90
10388;DHT22;5240;51.128;4.566;2023-09-30T07:38:03;13.90;99.90
10388;DHT22;5240;51.128;4.566;2023-09-30T07:40:30;14.00;99.90
10388;DHT22;5240;51.128;4.566;2023-09-30T07:42:59;14.00;99.90
10388;DHT22;5240;51.128;4.566;2023-09-30T07:45:26;14.10;99.90
10388;DHT22;5240;51.128;4.566;2023-09-30T07:47:53;14.10;99.90
10388;DHT22;5240;51.128;4.566;2023-09-30T07:50:20;14.10;99.90
10388;DHT22;5240;51.128;4.566;2023-09-30T07:52:47;14.10;99.90
10388;DHT22;5240;51.128;4.566;2023-09-30T07:55:15;14.20;99.90
10388;DHT22;5240;51.128;4.566;2023-09-30T07:57:43;14.60;99.90
10388;DHT22;5240;51.128;4.566;2023-09-30T08:00:12;14.80;99.90
10388;DHT22;5240;51.128;4.566;2023-09-30T08:02:42;15.10;99.90
10388;DHT22;5240;51.128;4.566;2023-09-30T08:05:09;15.30;99.90
10388;DHT22;5240;51.128;4.566;2023-09-30T08:07:37;15.60;99.90
10388;DHT22;5240;51.128;4.566;2023-09-30T08:10:08;15.90;99.90
10388;DHT22;5240;51.128;4.566;2023-09-30T08:12:39;15.90;99.90
10388;DHT22;5240;51.128;4.566;2023-09-30T08:15:07;15.80;99.90
10388;DHT22;5240;51.128;4.566;2023-09-30T08:17:38;15.90;99.90
10388;DHT22;5240;51.128;4.566;2023-09-30T08:20:09;16.10;99.90
10388;DHT22;5240;51.128;4.566;2023-09-30T08:22:37;16.10;99.90
10388;DHT22;5240;51.128;4.566;2023-09-30T08:25:05;16.20;99.90
10388;DHT22;5240;51.128;4.566;2023-09-30T08:27:33;16.30;99.90
10388;DHT22;5240;51.128;4.566;2023-09-30T08:30:02;16.50;99.90
10388;DHT22;5240;51.128;4.566;2023-09-30T08:32:32;16.60;99.90
10388;DHT22;5240;51.128;4.566;2023-09-30T08:35:01;16.90;99.90
10388;DHT22;5240;51.128;4.566;2023-09-30T08:37:29;17.20;99.90
10388;DHT22;5240;51.128;4.566;2023-09-30T08:39:57;17.40;99.90
10388;DHT22;5240;51.128;4.566;2023-09-30T08:42:29;17.70;99.90
10388;DHT22;5240;51.128;4.566;2023-09-30T08:44:59;17.90;99.90
10388;DHT22;5240;51.128;4.566;2023-09-30T08:47:27;17.80;99.90
10388;DHT22;5240;51.128;4.566;2023-09-30T08:49:54;17.70;99.90
10388;DHT22;5240;51.128;4.566;2023-09-30T08:52:29;17.70;99.90
10388;DHT22;5240;51.128;4.566;2023-09-30T08:54:57;17.50;99.90
10388;DHT22;5240;51.128;4.566;2023-09-30T08:57:24;17.40;99.90
10388;DHT22;5240;51.128;4.566;2023-09-30T08:59:53;17.50;99.90
10388;DHT22;5240;51.128;4.566;2023-09-30T09:02:20;18.00;99.90
10388;DHT22;5240;51.128;4.566;2023-09-30T09:04:48;18.60;99.90
10388;DHT22;5240;51.128;4.566;2023-09-30T09:07:16;19.10;99.90
10388;DHT22;5240;51.128;4.566;2023-09-30T09:10:03;19.60;99.90
10388;DHT22;5240;51.128;4.566;2023-09-30T09:12:33;19.60;99.90
10388;DHT22;5240;51.128;4.566;2023-09-30T09:15:00;19.80;99.90
10388;DHT22;5240;51.128;4.566;2023-09-30T09:17:40;19.90;99.90
10388;DHT22;5240;51.128;4.566;2023-09-30T09:20:16;20.00;99.90
10388;DHT22;5240;51.128;4.566;2023-09-30T09:22:46;20.00;99.90
10388;DHT22;5240;51.128;4.566;2023-09-30T09:25:15;20.60;99.90
10388;DHT22;5240;51.128;4.566;2023-09-30T09:27:42;20.70;99.90
10388;DHT22;5240;51.128;4.566;2023-09-30T09:30:17;20.40;99.90
10388;DHT22;5240;51.128;4.566;2023-09-30T09:33:00;20.80;99.90
10388;DHT22;5240;51.128;4.566;2023-09-30T09:35:29;21.10;99.90
10388;DHT22;5240;51.128;4.566;2023-09-30T09:37:59;21.50;99.90
10388;DHT22;5240;51.128;4.566;2023-09-30T09:40:29;21.90;99.90
10388;DHT22;5240;51.128;4.566;2023-09-30T09:42:57;22.50;99.90
10388;DHT22;5240;51.128;4.566;2023-09-30T09:45:25;22.70;99.90
10388;DHT22;5240;51.128;4.566;2023-09-30T09:47:53;22.60;99.90
10388;DHT22;5240;51.128;4.566;2023-09-30T09:50:21;23.10;99.90
10388;DHT22;5240;51.128;4.566;2023-09-30T09:52:49;22.70;99.90
10388;DHT22;5240;51.128;4.566;2023-09-30T09:55:17;22.90;99.90
10388;DHT22;5240;51.128;4.566;2023-09-30T09:57:46;23.00;99.90
10388;DHT22;5240;51.128;4.566;2023-09-30T10:00:16;23.00;99.90
10388;DHT22;5240;51.128;4.566;2023-09-30T10:02:45;23.20;99.90
10388;DHT22;5240;51.128;4.566;2023-09-30T10:05:13;23.60;99.90
10388;DHT22;5240;51.128;4.566;2023-09-30T10:07:45;23.60;99.90
10388;DHT22;5240;51.128;4.566;2023-09-30T10:10:16;24.00;99.90
10388;DHT22;5240;51.128;4.566;2023-09-30T10:12:45;23.90;99.90
10388;DHT22;5240;51.128;4.566;2023-09-30T10:15:38;23.40;99.90
10388;DHT22;5240;51.128;4.566;2023-09-30T10:18:07;23.40;99.90
10388;DHT22;5240;51.128;4.566;2023-09-30T10:20:36;23.40;99.90
10388;DHT22;5240;51.128;4.566;2023-09-30T10:23:25;23.30;99.90
10388;DHT22;5240;51.128;4.566;2023-09-30T10:25:54;22.90;99.90
10388;DHT22;5240;51.128;4.566;2023-09-30T10:28:39;22.70;99.90
10388;DHT22;5240;51.128;4.566;2023-09-30T10:31:11;22.50;99.90
10388;DHT22;5240;51.128;4.566;2023-09-30T10:36:57;23.30;99.90
10388;DHT22;5240;51.128;4.566;2023-09-30T10:39:53;24.10;99.90
10388;DHT22;5240;51.128;4.566;2023-09-30T10:42:44;25.00;99.90
10388;DHT22;5240;51.128;4.566;2023-09-30T10:45:43;25.20;99.90
10388;DHT22;5240;51.128;4.566;2023-09-30T10:48:35;25.30;99.90
10388;DHT22;5240;51.128;4.566;2023-09-30T10:51:14;24.80;99.90
10388;DHT22;5240;51.128;4.566;2023-09-30T10:53:43;24.40;99.90
10388;DHT22;5240;51.128;4.566;2023-09-30T10:56:10;24.70;99.90
10388;DHT22;5240;51.128;4.566;2023-09-30T10:58:41;24.20;99.90
10388;DHT22;5240;51.128;4.566;2023-09-30T11:01:10;24.10;99.90
10388;DHT22;5240;51.128;4.566;2023-09-30T11:03:37;24.10;99.90
10388;DHT22;5240;51.128;4.566;2023-09-30T11:06:04;23.80;99.90
10388;DHT22;5240;51.128;4.566;2023-09-30T11:08:32;24.10;99.90
10388;DHT22;5240;51.128;4.566;2023-09-30T11:11:00;24.10;99.90
10388;DHT22;5240;51.128;4.566;2023-09-30T11:13:32;24.40;99.90
10388;DHT22;5240;51.128;4.566;2023-09-30T11:16:01;23.50;99.90
10388;DHT22;5240;51.128;4.566;2023-09-30T11:18:32;22.60;99.90
10388;DHT22;5240;51.128;4.566;2023-09-30T11:21:07;21.80;99.90
10388;DHT22;5240;51.128;4.566;2023-09-30T11:23:35;21.90;99.90
10388;DHT22;5240;51.128;4.566;2023-09-30T11:26:02;22.50;99.90
10388;DHT22;5240;51.128;4.566;2023-09-30T11:28:38;22.60;99.90
10388;DHT22;5240;51.128;4.566;2023-09-30T11:31:11;22.60;99.90
10388;DHT22;5240;51.128;4.566;2023-09-30T11:33:51;23.10;99.90
10388;DHT22;5240;51.128;4.566;2023-09-30T11:36:19;23.90;99.90
10388;DHT22;5240;51.128;4.566;2023-09-30T11:38:48;24.10;99.90
10388;DHT22;5240;51.128;4.566;2023-09-30T11:41:16;23.70;99.90
10388;DHT22;5240;51.128;4.566;2023-09-30T11:43:58;23.30;99.90
10388;DHT22;5240;51.128;4.566;2023-09-30T11:46:27;22.90;99.90
10388;DHT22;5240;51.128;4.566;2023-09-30T11:49:00;22.40;99.90
10388;DHT22;5240;51.128;4.566;2023-09-30T11:51:28;22.10;99.90
10388;DHT22;5240;51.128;4.566;2023-09-30T11:53:55;21.70;99.90
10388;DHT22;5240;51.128;4.566;2023-09-30T11:56:23;21.20;99.90
10388;DHT22;5240;51.128;4.566;2023-09-30T11:58:55;20.90;99.90
10388;DHT22;5240;51.128;4.566;2023-09-30T12:01:22;20.80;99.90
10388;DHT22;5240;51.128;4.566;2023-09-30T12:03:51;20.70;99.90
10388;DHT22;5240;51.128;4.566;2023-09-30T12:06:22;20.60;99.90
10388;DHT22;5240;51.128;4.566;2023-09-30T12:08:49;20.40;99.90
10388;DHT22;5240;51.128;4.566;2023-09-30T12:11:17;20.30;99.90
10388;DHT22;5240;51.128;4.566;2023-09-30T12:13:44;20.50;99.90
10388;DHT22;5240;51.128;4.566;2023-09-30T12:16:14;20.70;99.90
10388;DHT22;5240;51.128;4.566;2023-09-30T12:18:41;20.80;99.90
10388;DHT22;5240;51.128;4.566;2023-09-30T12:21:09;20.80;99.90
10388;DHT22;5240;51.128;4.566;2023-09-30T12:23:38;20.70;99.90
10388;DHT22;5240;51.128;4.566;2023-09-30T12:26:05;20.70;99.90
10388;DHT22;5240;51.128;4.566;2023-09-30T12:28:33;20.60;99.90
10388;DHT22;5240;51.128;4.566;2023-09-30T12:31:01;20.30;99.90
10388;DHT22;5240;51.128;4.566;2023-09-30T12:33:30;20.20;99.90
10388;DHT22;5240;51.128;4.566;2023-09-30T12:35:58;20.30;99.90
10388;DHT22;5240;51.128;4.566;2023-09-30T12:38:25;20.40;99.90
10388;DHT22;5240;51.128;4.566;2023-09-30T12:40:54;20.60;99.90
10388;DHT22;5240;51.128;4.566;2023-09-30T12:43:22;20.60;99.90
10388;DHT22;5240;51.128;4.566;2023-09-30T12:45:49;20.70;99.90
10388;DHT22;5240;51.128;4.566;2023-09-30T12:48:16;20.80;99.90
10388;DHT22;5240;51.128;4.566;2023-09-30T12:50:43;21.00;99.90
10388;DHT22;5240;51.128;4.566;2023-09-30T12:53:11;21.30;99.90
10388;DHT22;5240;51.128;4.566;2023-09-30T12:55:38;21.40;99.90
10388;DHT22;5240;51.128;4.566;2023-09-30T12:58:06;21.50;99.90
10388;DHT22;5240;51.128;4.566;2023-09-30T13:00:34;21.60;99.90
10388;DHT22;5240;51.128;4.566;2023-09-30T13:03:01;21.60;99.90
10388;DHT22;5240;51.128;4.566;2023-09-30T13:05:28;21.70;99.90
10388;DHT22;5240;51.128;4.566;2023-09-30T13:07:56;21.60;99.90
10388;DHT22;5240;51.128;4.566;2023-09-30T13:10:23;21.60;99.90
10388;DHT22;5240;51.128;4.566;2023-09-30T13:12:50;21.50;99.90
10388;DHT22;5240;51.128;4.566;2023-09-30T13:15:20;21.40;99.90
10388;DHT22;5240;51.128;4.566;2023-09-30T13:17:49;21.30;99.90
10388;DHT22;5240;51.128;4.566;2023-09-30T13:20:17;21.40;99.90
10388;DHT22;5240;51.128;4.566;2023-09-30T13:22:44;21.30;99.90
10388;DHT22;5240;51.128;4.566;2023-09-30T13:25:15;21.50;99.90
10388;DHT22;5240;51.128;4.566;2023-09-30T13:27:42;21.60;99.90
10388;DHT22;5240;51.128;4.566;2023-09-30T13:30:10;21.60;99.90
10388;DHT22;5240;51.128;4.566;2023-09-30T13:32:38;21.70;99.90
10388;DHT22;5240;51.128;4.566;2023-09-30T13:35:06;21.60;99.90
10388;DHT22;5240;51.128;4.566;2023-09-30T13:37:33;21.60;99.90
10388;DHT22;5240;51.128;4.566;2023-09-30T13:40:00;21.60;99.90
10388;DHT22;5240;51.128;4.566;2023-09-30T13:42:29;21.60;99.90
10388;DHT22;5240;51.128;4.566;2023-09-30T13:44:57;21.30;99.90
10388;DHT22;5240;51.128;4.566;2023-09-30T13:47:24;21.20;99.90
10388;DHT22;5240;51.128;4.566;2023-09-30T13:49:53;21.00;99.90
10388;DHT22;5240;51.128;4.566;2023-09-30T13:52:21;20.90;99.90
10388;DHT22;5240;51.128;4.566;2023-09-30T13:54:49;21.00;99.90
10388;DHT22;5240;51.128;4.566;2023-09-30T13:57:16;20.90;99.90
10388;DHT22;5240;51.128;4.566;2023-09-30T13:59:44;20.90;99.90
10388;DHT22;5240;51.128;4.566;2023-09-30T14:02:11;20.80;99.90
10388;DHT22;5240;51.128;4.566;2023-09-30T14:04:39;20.80;99.90
10388;DHT22;5240;51.128;4.566;2023-09-30T14:07:08;20.90;99.90
10388;DHT22;5240;51.128;4.566;2023-09-30T14:09:35;21.10;99.90
10388;DHT22;5240;51.128;4.566;2023-09-30T14:12:03;21.20;99.90
10388;DHT22;5240;51.128;4.566;2023-09-30T14:14:31;21.10;99.90
10388;DHT22;5240;51.128;4.566;2023-09-30T14:17:02;21.10;99.90
10388;DHT22;5240;51.128;4.566;2023-09-30T14:19:33;21.10;99.90
10388;DHT22;5240;51.128;4.566;2023-09-30T14:22:00;21.10;99.90
10388;DHT22;5240;51.128;4.566;2023-09-30T14:24:31;21.10;99.90
10388;DHT22;5240;51.128;4.566;2023-09-30T14:26:59;21.10;99.90
10388;DHT22;5240;51.128;4.566;2023-09-30T14:29:26;21.00;99.90
10388;DHT22;5240;51.128;4.566;2023-09-30T14:31:53;21.00;99.90
10388;DHT22;5240;51.128;4.566;2023-09-30T14:34:22;21.00;99.90
10388;DHT22;5240;51.128;4.566;2023-09-30T14:36:49;21.00;99.90
10388;DHT22;5240;51.128;4.566;2023-09-30T14:39:16;20.90;99.90
10388;DHT22;5240;51.128;4.566;2023-09-30T14:41:45;21.00;99.90
10388;DHT22;5240;51.128;4.566;2023-09-30T14:44:12;21.10;99.90
10388;DHT22;5240;51.128;4.566;2023-09-30T14:46:39;21.00;99.90
10388;DHT22;5240;51.128;4.566;2023-09-30T14:49:06;21.00;99.90
10388;DHT22;5240;51.128;4.566;2023-09-30T14:51:33;21.00;99.90
10388;DHT22;5240;51.128;4.566;2023-09-30T14:54:01;21.00;99.90
10388;DHT22;5240;51.128;4.566;2023-09-30T14:56:29;21.00;99.90
10388;DHT22;5240;51.128;4.566;2023-09-30T14:58:57;20.80;99.90
10388;DHT22;5240;51.128;4.566;2023-09-30T15:01:25;20.60;99.90
10388;DHT22;5240;51.128;4.566;2023-09-30T15:03:52;20.60;99.90
10388;DHT22;5240;51.128;4.566;2023-09-30T15:06:19;20.60;99.90
10388;DHT22;5240;51.128;4.566;2023-09-30T15:08:48;20.50;99.90
10388;DHT22;5240;51.128;4.566;2023-09-30T15:11:15;20.50;99.90
10388;DHT22;5240;51.128;4.566;2023-09-30T15:13:46;20.60;99.90
10388;DHT22;5240;51.128;4.566;2023-09-30T15:16:19;20.60;99.90
10388;DHT22;5240;51.128;4.566;2023-09-30T15:18:47;20.50;99.90
10388;DHT22;5240;51.128;4.566;2023-09-30T15:21:17;20.50;99.90
10388;DHT22;5240;51.128;4.566;2023-09-30T15:23:45;20.50;99.90
10388;DHT22;5240;51.128;4.566;2023-09-30T15:26:12;20.40;99.90
10388;DHT22;5240;51.128;4.566;2023-09-30T15:28:39;20.40;99.90
10388;DHT22;5240;51.128;4.566;2023-09-30T15:31:06;20.40;99.90
10388;DHT22;5240;51.128;4.566;2023-09-30T15:33:34;20.30;99.90
10388;DHT22;5240;51.128;4.566;2023-09-30T15:36:09;20.20;99.90
10388;DHT22;5240;51.128;4.566;2023-09-30T15:38:36;20.10;99.90
10388;DHT22;5240;51.128;4.566;2023-09-30T15:41:03;20.00;99.90
10388;DHT22;5240;51.128;4.566;2023-09-30T15:43:30;20.00;99.90
10388;DHT22;5240;51.128;4.566;2023-09-30T15:45:58;20.00;99.90
10388;DHT22;5240;51.128;4.566;2023-09-30T15:48:25;19.90;99.90
10388;DHT22;5240;51.128;4.566;2023-09-30T15:50:54;20.00;99.90
10388;DHT22;5240;51.128;4.566;2023-09-30T15:53:21;19.90;99.90
10388;DHT22;5240;51.128;4.566;2023-09-30T15:55:48;19.80;99.90
10388;DHT22;5240;51.128;4.566;2023-09-30T15:58:34;19.80;99.90